Aérodrome :
LOGIN :

S'inscrire | Disclaimer

   EN    FR    IT 

 










Légende :    VFR   VFR Marginal   IFR   IFR Intensif   IFR Très Intensif
Visi : 
Plafond : 
>= 8 km
>= 3000ft
5 à 8 km
1000 à 3000 ft
1500m à 5 km
500 à 1000 ft
800 à 1500m
200 à 500 ft
< 800m
< 200 ft
Symboles :   Orages  Brouillard  Fortes neiges  Fortes précipitations  Vent > 20 kt
SIGMETs :   Divers  Orages  Givrage  Turbulence  Onde Orograph.  Cendres Volcan.






- Altitude de l'aérodrome : 1682 ft
- Code IATA : VIT


LEVT - Vitoria Gasteiz

DERNIER METAR :
  • 171530Z 03008KT 350V070 9999 FEW014 BKN024 08/06 Q1030

METARs EXPIRÉS :
  • 171500Z 34007KT 290V020 9999 SCT025 BKN038 09/05 Q1029
  • 171430Z 34008KT 9999 FEW023 BKN034 09/06 Q1029
  • 171400Z 34006KT 300V030 9999 FEW021 SCT024 BKN032 09/06 Q1029
  • 171330Z 36005KT 330V050 9999 FEW009 SCT025 BKN032 09/07 Q1029
  • 171300Z 05007KT 8000 -RA FEW006 SCT015 BKN025 08/07 Q1029

TAF TAF LEVT
Valide du 17 à 12h jusqu'au 18 à 12h UTC


171100Z 1712/1812 36009KT 9999 SCT010 BKN020 TX13/1714Z TNM00/1806Z
PROB40
TEMPO 1712/1715 3000 RA BKN010 BKN014
PROB40
TEMPO 1800/1807 3000 BR
PROB40
TEMPO 1800/1807 0350 FG FZFG VV001



MET'MAP, la Météo Aéronautique d'un coup d'oeil ! - Copyright ORBIFLY Décembre 2007 - Disclaimer

ORBIFLY MET'MAP TEAM :

Programmation & Développement : Alexandra Zaïnal
Sur une idée originale de : Baudouin d'Aumeries
Assistance à la programmation : Marc-Olivier Méhu
Soutien technique & logistique : Manuel Goepfert

Contact : metmap@orbifly.com




SOURCES & CREDITS :

   NOAA